createdAt,value
2022-11-18T00:00:07.961Z,7.800000
2022-11-18T00:01:01.141Z,7.800000
2022-11-18T00:02:01.359Z,7.800000
2022-11-18T00:03:01.158Z,7.800000
2022-11-18T00:04:01.228Z,7.900000
2022-11-18T00:05:05.422Z,7.900000
2022-11-18T00:06:01.784Z,7.900000
2022-11-18T00:07:01.261Z,7.900000
2022-11-18T00:08:01.292Z,7.900000
2022-11-18T00:09:00.199Z,7.900000
2022-11-18T00:10:03.378Z,7.900000
2022-11-18T00:11:00.249Z,7.900000
2022-11-18T00:12:00.298Z,7.800000
2022-11-18T00:13:00.231Z,7.800000
2022-11-18T00:14:01.763Z,7.800000
2022-11-18T00:15:04.387Z,7.800000
2022-11-18T00:16:00.317Z,7.800000
2022-11-18T00:17:00.276Z,7.800000
2022-11-18T00:18:00.328Z,7.800000
2022-11-18T00:19:00.264Z,7.800000
2022-11-18T00:20:03.566Z,7.800000
2022-11-18T00:21:00.297Z,7.700000
2022-11-18T00:22:01.849Z,7.700000
2022-11-18T00:23:00.310Z,7.700000
2022-11-18T00:24:00.421Z,7.700000
2022-11-18T00:25:03.658Z,7.700000
2022-11-18T00:26:01.784Z,7.700000
2022-11-18T00:27:00.495Z,7.700000
2022-11-18T00:28:00.427Z,7.700000
2022-11-18T00:29:00.348Z,7.700000
2022-11-18T00:30:04.791Z,7.700000
2022-11-18T00:31:00.401Z,7.700000
2022-11-18T00:32:00.434Z,7.700000
2022-11-18T00:33:00.400Z,7.700000
2022-11-18T00:34:01.799Z,7.700000
2022-11-18T00:35:04.615Z,7.700000
2022-11-18T00:36:00.466Z,7.700000
2022-11-18T00:37:00.418Z,7.700000
2022-11-18T00:38:00.500Z,7.700000
2022-11-18T00:39:00.445Z,7.700000
2022-11-18T00:40:05.719Z,7.700000
2022-11-18T00:41:00.460Z,7.700000
2022-11-18T00:42:00.568Z,7.800000
2022-11-18T00:43:00.472Z,7.800000
2022-11-18T00:44:01.210Z,7.800000
2022-11-18T00:45:03.294Z,7.800000
2022-11-18T00:46:00.598Z,7.800000
2022-11-18T00:47:00.496Z,7.800000
2022-11-18T00:48:01.781Z,7.800000
2022-11-18T00:49:00.513Z,7.800000
2022-11-18T00:50:06.870Z,7.800000
2022-11-18T00:51:00.523Z,7.800000
2022-11-18T00:52:00.629Z,7.900000
2022-11-18T00:53:00.550Z,7.900000
2022-11-18T00:54:00.635Z,7.900000
2022-11-18T00:55:03.664Z,7.900000
2022-11-18T00:56:00.652Z,7.900000
2022-11-18T00:57:00.570Z,7.900000
2022-11-18T00:58:00.654Z,7.900000
2022-11-18T00:59:00.580Z,7.900000
2022-11-18T01:00:04.906Z,7.900000
2022-11-18T01:01:00.668Z,7.900000
2022-11-18T01:02:01.835Z,7.900000
2022-11-18T01:03:00.622Z,7.900000
2022-11-18T01:04:00.715Z,7.900000
2022-11-18T01:05:04.967Z,7.900000
2022-11-18T01:06:00.713Z,7.900000
2022-11-18T01:07:00.687Z,7.900000
2022-11-18T01:08:00.725Z,7.900000
2022-11-18T01:09:00.677Z,7.900000
2022-11-18T01:10:05.118Z,7.900000
2022-11-18T01:11:00.688Z,7.900000
2022-11-18T01:12:00.790Z,7.900000
2022-11-18T01:13:00.703Z,7.900000
2022-11-18T01:14:00.778Z,7.900000
2022-11-18T01:15:13.039Z,7.900000
2022-11-18T01:16:01.816Z,7.900000
2022-11-18T01:17:00.724Z,7.900000
2022-11-18T01:18:00.814Z,7.900000
2022-11-18T01:19:00.748Z,7.900000
2022-11-18T01:20:06.626Z,7.800000
2022-11-18T01:21:00.797Z,7.800000
2022-11-18T01:22:00.829Z,7.700000
2022-11-18T01:23:00.770Z,7.700000
2022-11-18T01:24:00.852Z,7.700000
2022-11-18T01:25:03.805Z,7.700000
2022-11-18T01:26:00.847Z,7.700000
2022-11-18T01:27:00.832Z,7.600000
2022-11-18T01:28:00.904Z,7.600000
2022-11-18T01:29:00.800Z,7.600000
2022-11-18T01:30:06.589Z,7.500000
2022-11-18T01:31:00.826Z,7.500000
2022-11-18T01:32:23.515Z,7.500000
2022-11-18T01:33:00.878Z,7.500000
2022-11-18T01:34:00.920Z,7.500000
2022-11-18T01:35:03.931Z,7.400000
2022-11-18T01:36:00.943Z,7.400000
2022-11-18T01:37:00.882Z,7.400000
2022-11-18T01:38:01.920Z,7.400000
2022-11-18T01:39:00.881Z,7.400000
2022-11-18T01:40:05.264Z,7.400000
2022-11-18T01:41:00.902Z,7.400000
2022-11-18T01:42:00.979Z,7.400000
2022-11-18T01:43:00.928Z,7.400000
2022-11-18T01:44:01.045Z,7.400000
2022-11-18T01:45:06.622Z,7.300000
2022-11-18T01:46:01.014Z,7.300000
2022-11-18T01:47:00.952Z,7.300000
2022-11-18T01:48:01.043Z,7.300000
2022-11-18T01:49:00.958Z,7.300000
2022-11-18T01:50:05.369Z,7.300000
2022-11-18T01:51:00.980Z,7.300000
2022-11-18T01:52:01.811Z,7.300000
2022-11-18T01:53:00.992Z,7.300000
2022-11-18T01:54:01.086Z,7.300000
2022-11-18T01:55:05.084Z,7.300000
2022-11-18T01:56:01.102Z,7.300000
2022-11-18T01:57:01.048Z,7.300000
2022-11-18T01:58:01.095Z,7.300000
2022-11-18T01:59:01.034Z,7.400000
2022-11-18T02:00:07.536Z,7.400000
2022-11-18T02:01:01.111Z,7.400000
2022-11-18T02:02:01.242Z,7.400000
2022-11-18T02:03:01.081Z,7.400000
2022-11-18T02:04:01.160Z,7.400000
2022-11-18T02:05:05.241Z,7.400000
2022-11-18T02:06:01.803Z,7.400000
2022-11-18T02:07:01.158Z,7.400000
2022-11-18T02:08:01.209Z,7.400000
2022-11-18T02:09:01.108Z,7.400000
2022-11-18T02:10:06.792Z,7.400000
2022-11-18T02:11:01.124Z,7.300000
2022-11-18T02:12:01.291Z,7.300000
2022-11-18T02:13:01.146Z,7.300000
2022-11-18T02:14:01.370Z,7.300000
2022-11-18T02:15:04.278Z,7.300000
2022-11-18T02:16:01.252Z,7.300000
2022-11-18T02:17:01.188Z,7.300000
2022-11-18T02:18:01.265Z,7.300000
2022-11-18T02:19:00.268Z,7.300000
2022-11-18T02:20:05.099Z,7.300000
2022-11-18T02:21:00.220Z,7.300000
2022-11-18T02:22:00.299Z,7.300000
2022-11-18T02:23:00.225Z,7.300000
2022-11-18T02:24:00.293Z,7.300000
2022-11-18T02:25:04.364Z,7.300000
2022-11-18T02:26:00.331Z,7.300000
2022-11-18T02:27:00.273Z,7.300000
2022-11-18T02:28:00.334Z,7.300000
2022-11-18T02:29:00.254Z,7.300000
2022-11-18T02:30:07.830Z,7.300000
2022-11-18T02:31:00.372Z,7.300000
2022-11-18T02:32:00.376Z,7.300000
2022-11-18T02:33:00.321Z,7.400000
2022-11-18T02:34:00.361Z,7.400000
2022-11-18T02:35:03.241Z,7.400000
2022-11-18T02:36:00.437Z,7.400000
2022-11-18T02:37:00.329Z,7.400000
2022-11-18T02:38:01.819Z,7.400000
2022-11-18T02:39:00.354Z,7.400000
2022-11-18T02:40:05.520Z,7.400000
2022-11-18T02:41:00.401Z,7.400000
2022-11-18T02:42:00.452Z,7.400000
2022-11-18T02:43:00.393Z,7.400000
2022-11-18T02:44:00.509Z,7.300000
2022-11-18T02:45:03.771Z,7.300000
2022-11-18T02:46:00.749Z,7.300000
2022-11-18T02:47:00.417Z,7.300000
2022-11-18T02:48:00.506Z,7.300000
2022-11-18T02:49:00.431Z,7.300000
2022-11-18T02:50:03.472Z,7.300000
2022-11-18T02:51:00.464Z,7.200000
2022-11-18T02:52:01.826Z,7.200000
2022-11-18T02:53:00.451Z,7.200000
2022-11-18T02:54:00.538Z,7.200000
2022-11-18T02:55:04.633Z,7.200000
2022-11-18T02:56:00.547Z,7.200000
2022-11-18T02:57:00.485Z,7.200000
2022-11-18T02:58:00.565Z,7.200000
2022-11-18T02:59:00.525Z,7.200000
2022-11-18T03:00:05.550Z,7.200000
2022-11-18T03:01:00.660Z,7.200000
2022-11-18T03:02:00.704Z,7.200000
2022-11-18T03:03:00.549Z,7.200000
2022-11-18T03:04:00.614Z,7.200000
2022-11-18T03:05:03.639Z,7.200000
2022-11-18T03:06:01.842Z,7.200000
2022-11-18T03:07:00.675Z,7.200000
2022-11-18T03:08:00.650Z,7.200000
2022-11-18T03:09:00.590Z,7.200000
2022-11-18T03:10:04.959Z,7.200000
2022-11-18T03:11:00.600Z,7.200000
2022-11-18T03:12:00.729Z,7.200000
2022-11-18T03:13:00.610Z,7.200000
2022-11-18T03:14:00.682Z,7.300000
2022-11-18T03:15:07.222Z,7.300000
2022-11-18T03:16:00.705Z,7.300000
2022-11-18T03:17:00.650Z,7.300000
2022-11-18T03:18:00.796Z,7.300000
2022-11-18T03:19:00.664Z,7.300000
2022-11-18T03:20:03.879Z,7.300000
2022-11-18T03:21:00.676Z,7.300000
2022-11-18T03:22:00.757Z,7.300000
2022-11-18T03:23:00.693Z,7.300000
2022-11-18T03:24:01.832Z,7.400000
2022-11-18T03:25:05.455Z,7.400000
2022-11-18T03:26:00.772Z,7.400000
2022-11-18T03:27:00.731Z,7.400000
2022-11-18T03:28:00.802Z,7.400000
2022-11-18T03:29:00.725Z,7.400000
2022-11-18T03:30:05.305Z,7.400000
2022-11-18T03:31:00.746Z,7.400000
2022-11-18T03:32:00.823Z,7.400000
2022-11-18T03:33:00.767Z,7.400000
2022-11-18T03:34:00.869Z,7.400000
2022-11-18T03:35:05.587Z,7.400000
2022-11-18T03:36:00.904Z,7.400000
2022-11-18T03:37:01.478Z,7.500000
2022-11-18T03:38:01.820Z,7.500000
2022-11-18T03:39:00.821Z,7.500000
2022-11-18T03:40:05.784Z,7.500000
2022-11-18T03:41:00.834Z,7.500000
2022-11-18T03:42:01.854Z,7.500000
2022-11-18T03:43:00.846Z,7.500000
2022-11-18T03:44:00.922Z,7.500000
2022-11-18T03:45:05.234Z,7.500000
2022-11-18T03:46:01.816Z,7.500000
2022-11-18T03:47:00.912Z,7.500000
2022-11-18T03:48:01.104Z,7.500000
2022-11-18T03:49:00.877Z,7.500000
2022-11-18T03:50:04.418Z,7.500000
2022-11-18T03:51:00.955Z,7.500000
2022-11-18T03:52:00.971Z,7.500000
2022-11-18T03:53:00.919Z,7.500000
2022-11-18T03:54:01.865Z,7.500000
2022-11-18T03:55:05.117Z,7.500000
2022-11-18T03:56:00.983Z,7.500000
2022-11-18T03:57:00.976Z,7.500000
2022-11-18T03:58:01.021Z,7.500000
2022-11-18T03:59:00.960Z,7.500000
2022-11-18T04:00:05.845Z,7.500000
2022-11-18T04:01:00.998Z,7.500000
2022-11-18T04:02:01.193Z,7.500000
2022-11-18T04:03:01.007Z,7.500000
2022-11-18T04:04:01.063Z,7.500000
2022-11-18T04:05:03.943Z,7.500000
2022-11-18T04:06:01.141Z,7.500000
2022-11-18T04:07:01.112Z,7.500000
2022-11-18T04:08:01.814Z,7.500000
2022-11-18T04:09:01.051Z,7.500000
2022-11-18T04:10:05.781Z,7.500000
2022-11-18T04:11:01.055Z,7.500000
2022-11-18T04:12:01.154Z,7.400000
2022-11-18T04:13:05.973Z,7.400000
2022-11-18T04:15:05.374Z,7.400000
2022-11-18T04:16:01.258Z,7.400000
2022-11-18T04:17:01.098Z,7.400000
2022-11-18T04:18:01.212Z,7.400000
2022-11-18T04:19:06.042Z,7.400000
2022-11-18T04:20:05.466Z,7.400000
2022-11-18T04:21:01.138Z,7.400000
2022-11-18T04:22:01.268Z,7.400000
2022-11-18T04:23:01.140Z,7.400000
2022-11-18T04:24:01.239Z,7.400000
2022-11-18T04:25:06.323Z,7.400000
2022-11-18T04:26:01.226Z,7.400000
2022-11-18T04:27:01.161Z,7.300000
2022-11-18T04:28:01.293Z,7.300000
2022-11-18T04:29:01.171Z,7.300000
2022-11-18T04:30:10.294Z,7.300000
2022-11-18T04:31:01.214Z,7.300000
2022-11-18T04:32:01.292Z,7.300000
2022-11-18T04:33:00.222Z,7.300000
2022-11-18T04:34:00.308Z,7.300000
2022-11-18T04:35:04.396Z,7.400000
2022-11-18T04:36:00.359Z,7.400000
2022-11-18T04:37:00.247Z,7.400000
2022-11-18T04:38:00.329Z,7.400000
2022-11-18T04:39:00.268Z,7.400000
2022-11-18T04:40:03.580Z,7.400000
2022-11-18T04:41:00.281Z,7.400000
2022-11-18T04:42:00.346Z,7.400000
2022-11-18T04:43:00.276Z,7.400000
2022-11-18T04:44:00.366Z,7.400000
2022-11-18T04:45:03.307Z,7.400000
2022-11-18T04:46:00.412Z,7.400000
2022-11-18T04:47:00.374Z,7.400000
2022-11-18T04:48:03.459Z,7.400000
2022-11-18T04:49:00.338Z,7.400000
2022-11-18T04:50:04.812Z,7.300000
2022-11-18T04:51:00.403Z,7.300000
2022-11-18T04:52:00.532Z,7.300000
2022-11-18T04:53:00.346Z,7.400000
2022-11-18T04:54:00.441Z,7.400000
2022-11-18T04:55:03.323Z,7.400000
2022-11-18T04:56:00.429Z,7.400000
2022-11-18T04:57:00.388Z,7.400000
2022-11-18T04:58:00.485Z,7.400000
2022-11-18T04:59:00.395Z,7.400000
2022-11-18T05:00:04.943Z,7.400000
2022-11-18T05:01:00.486Z,7.400000
2022-11-18T05:02:00.550Z,7.400000
2022-11-18T05:03:00.444Z,7.400000
2022-11-18T05:04:00.590Z,7.400000
2022-11-18T05:05:03.462Z,7.500000
2022-11-18T05:06:00.523Z,7.500000
2022-11-18T05:07:00.558Z,7.500000
2022-11-18T05:08:00.552Z,7.500000
2022-11-18T05:09:00.500Z,7.500000
2022-11-18T05:10:05.039Z,7.500000
2022-11-18T05:11:00.503Z,7.500000
2022-11-18T05:12:00.657Z,7.500000
2022-11-18T05:13:00.532Z,7.500000
2022-11-18T05:14:00.651Z,7.500000
2022-11-18T05:15:03.528Z,7.500000
2022-11-18T05:16:00.681Z,7.500000
2022-11-18T05:17:00.552Z,7.500000
2022-11-18T05:18:00.662Z,7.500000
2022-11-18T05:19:00.572Z,7.500000
2022-11-18T05:20:04.993Z,7.500000
2022-11-18T05:21:00.613Z,7.500000
2022-11-18T05:22:00.700Z,7.500000
2022-11-18T05:23:00.648Z,7.500000
2022-11-18T05:24:00.712Z,7.500000
2022-11-18T05:25:05.233Z,7.500000
2022-11-18T05:26:02.593Z,7.500000
2022-11-18T05:27:00.652Z,7.500000
2022-11-18T05:28:00.755Z,7.500000
2022-11-18T05:29:00.664Z,7.500000
2022-11-18T05:30:04.559Z,7.500000
2022-11-18T05:31:00.689Z,7.500000
2022-11-18T05:32:00.807Z,7.500000
2022-11-18T05:33:00.709Z,7.500000
2022-11-18T05:34:00.803Z,7.500000
2022-11-18T05:35:04.896Z,7.400000
2022-11-18T05:36:00.792Z,7.400000
2022-11-18T05:37:00.734Z,7.400000
2022-11-18T05:38:00.811Z,7.400000
2022-11-18T05:39:00.759Z,7.400000
2022-11-18T05:40:03.945Z,7.400000
2022-11-18T05:41:00.802Z,7.400000
2022-11-18T05:42:00.855Z,7.400000
2022-11-18T05:43:00.772Z,7.400000
2022-11-18T05:44:00.863Z,7.400000
2022-11-18T05:45:05.157Z,7.400000
2022-11-18T05:46:00.883Z,7.400000
2022-11-18T05:47:00.808Z,7.400000
2022-11-18T05:48:00.896Z,7.300000
2022-11-18T05:49:00.817Z,7.300000
2022-11-18T05:50:05.253Z,7.400000
2022-11-18T05:51:00.836Z,7.400000
2022-11-18T05:52:00.910Z,7.400000
2022-11-18T05:53:00.859Z,7.400000
2022-11-18T05:54:01.002Z,7.400000
2022-11-18T05:55:03.943Z,7.400000
2022-11-18T05:56:01.811Z,7.400000
2022-11-18T05:57:00.917Z,7.400000
2022-11-18T05:58:00.964Z,7.400000
2022-11-18T05:59:00.877Z,7.400000
2022-11-18T06:00:05.874Z,7.300000
2022-11-18T06:01:00.953Z,7.300000
2022-11-18T06:02:01.064Z,7.300000
2022-11-18T06:03:01.006Z,7.300000
2022-11-18T06:04:01.032Z,7.300000
2022-11-18T06:05:04.084Z,7.300000
2022-11-18T06:06:01.090Z,7.300000
2022-11-18T06:07:01.059Z,7.300000
2022-11-18T06:08:01.098Z,7.300000
2022-11-18T06:09:01.018Z,7.300000
2022-11-18T06:10:06.297Z,7.300000
2022-11-18T06:11:01.032Z,7.300000
2022-11-18T06:12:01.098Z,7.300000
2022-11-18T06:13:01.070Z,7.300000
2022-11-18T06:14:01.133Z,7.200000
2022-11-18T06:15:05.438Z,7.200000
2022-11-18T06:16:01.313Z,7.200000
2022-11-18T06:17:01.091Z,7.200000
2022-11-18T06:18:01.161Z,7.200000
2022-11-18T06:19:01.070Z,7.300000
2022-11-18T06:20:07.908Z,7.300000
2022-11-18T06:21:01.108Z,7.300000
2022-11-18T06:22:01.177Z,7.300000
2022-11-18T06:23:01.147Z,7.300000
2022-11-18T06:24:01.195Z,7.300000
2022-11-18T06:25:06.053Z,7.300000
2022-11-18T06:26:01.286Z,7.300000
2022-11-18T06:27:01.165Z,7.300000
2022-11-18T06:28:01.383Z,7.300000
2022-11-18T06:29:01.175Z,7.300000
2022-11-18T06:30:04.979Z,7.300000
2022-11-18T06:31:01.344Z,7.300000
2022-11-18T06:32:01.295Z,7.300000
2022-11-18T06:33:01.189Z,7.300000
2022-11-18T06:34:01.265Z,7.300000
2022-11-18T06:35:04.332Z,7.300000
2022-11-18T06:36:01.300Z,7.300000
2022-11-18T06:37:01.235Z,7.300000
2022-11-18T06:38:00.318Z,7.300000
2022-11-18T06:39:00.227Z,7.300000
2022-11-18T06:40:03.650Z,7.300000
2022-11-18T06:41:00.238Z,7.300000
2022-11-18T06:42:00.331Z,7.300000
2022-11-18T06:43:00.265Z,7.300000
2022-11-18T06:44:00.400Z,7.300000
2022-11-18T06:45:03.568Z,7.300000
2022-11-18T06:46:04.712Z,7.300000
2022-11-18T06:47:00.295Z,7.300000
2022-11-18T06:48:00.381Z,7.300000
2022-11-18T06:49:00.306Z,7.300000
2022-11-18T06:50:04.627Z,7.300000
2022-11-18T06:51:00.330Z,7.300000
2022-11-18T06:52:00.404Z,7.300000
2022-11-18T06:53:00.346Z,7.300000
2022-11-18T06:54:00.885Z,7.300000
2022-11-18T06:55:03.362Z,7.300000
2022-11-18T06:56:00.495Z,7.300000
2022-11-18T06:57:00.376Z,7.300000
2022-11-18T06:58:00.442Z,7.300000
2022-11-18T06:59:00.381Z,7.300000
2022-11-18T07:00:04.878Z,7.300000
2022-11-18T07:01:00.514Z,7.300000
2022-11-18T07:02:00.512Z,7.300000
2022-11-18T07:03:00.433Z,7.300000
2022-11-18T07:04:00.490Z,7.300000
2022-11-18T07:05:03.417Z,7.300000
2022-11-18T07:06:00.529Z,7.300000
2022-11-18T07:07:00.536Z,7.300000
2022-11-18T07:08:00.776Z,7.300000
2022-11-18T07:09:00.476Z,7.300000
2022-11-18T07:10:04.902Z,7.300000
2022-11-18T07:11:00.467Z,7.300000
2022-11-18T07:12:00.559Z,7.300000
2022-11-18T07:13:00.495Z,7.300000
2022-11-18T07:14:00.604Z,7.400000
2022-11-18T07:15:05.832Z,7.400000
2022-11-18T07:16:00.588Z,7.400000
2022-11-18T07:17:00.540Z,7.400000
2022-11-18T07:18:00.603Z,7.400000
2022-11-18T07:19:00.597Z,7.400000
2022-11-18T07:20:04.179Z,7.400000
2022-11-18T07:21:00.565Z,7.400000
2022-11-18T07:22:00.645Z,7.400000
2022-11-18T07:23:00.578Z,7.400000
2022-11-18T07:24:00.643Z,7.400000
2022-11-18T07:25:04.699Z,7.400000
2022-11-18T07:26:00.687Z,7.400000
2022-11-18T07:27:00.599Z,7.400000
2022-11-18T07:28:00.694Z,7.400000
2022-11-18T07:29:00.592Z,7.400000
2022-11-18T07:30:05.054Z,7.400000
2022-11-18T07:31:00.632Z,7.400000
2022-11-18T07:32:00.797Z,7.400000
2022-11-18T07:33:00.645Z,7.400000
2022-11-18T07:34:00.718Z,7.400000
2022-11-18T07:35:03.548Z,7.400000
2022-11-18T07:36:00.729Z,7.400000
2022-11-18T07:37:00.704Z,7.400000
2022-11-18T07:38:00.765Z,7.400000
2022-11-18T07:39:00.676Z,7.400000
2022-11-18T07:40:05.794Z,7.400000
2022-11-18T07:41:00.701Z,7.400000
2022-11-18T07:42:00.786Z,7.400000
2022-11-18T07:43:00.717Z,7.400000
2022-11-18T07:44:01.339Z,7.400000
2022-11-18T07:45:03.920Z,7.400000
2022-11-18T07:46:00.820Z,7.400000
2022-11-18T07:47:00.819Z,7.400000
2022-11-18T07:48:00.828Z,7.400000
2022-11-18T07:49:00.746Z,7.400000
2022-11-18T07:50:05.188Z,7.400000
2022-11-18T07:51:00.791Z,7.400000
2022-11-18T07:52:00.863Z,7.500000
2022-11-18T07:53:00.798Z,7.500000
2022-11-18T07:54:00.866Z,7.500000
2022-11-18T07:55:05.119Z,7.500000
2022-11-18T07:56:00.898Z,7.500000
2022-11-18T07:57:00.862Z,7.500000
2022-11-18T07:58:00.893Z,7.600000
2022-11-18T07:59:00.823Z,7.600000
2022-11-18T08:00:05.278Z,7.600000
2022-11-18T08:01:00.955Z,7.600000
2022-11-18T08:02:02.681Z,7.600000
2022-11-18T08:03:00.968Z,7.600000
2022-11-18T08:04:00.990Z,7.600000
2022-11-18T08:05:04.046Z,7.600000
2022-11-18T08:06:01.191Z,7.600000
2022-11-18T08:07:01.062Z,7.600000
2022-11-18T08:08:01.019Z,7.700000
2022-11-18T08:09:00.924Z,7.700000
2022-11-18T08:10:07.223Z,7.700000
2022-11-18T08:11:01.023Z,7.700000
2022-11-18T08:12:01.021Z,7.700000
2022-11-18T08:13:01.020Z,7.700000
2022-11-18T08:14:01.076Z,7.700000
2022-11-18T08:15:03.982Z,7.800000
2022-11-18T08:16:01.054Z,7.800000
2022-11-18T08:17:01.008Z,7.800000
2022-11-18T08:18:01.100Z,7.800000
2022-11-18T08:19:01.103Z,7.800000
2022-11-18T08:20:05.480Z,7.800000
2022-11-18T08:21:01.028Z,7.800000
2022-11-18T08:22:01.069Z,7.800000
2022-11-18T08:23:01.110Z,7.800000
2022-11-18T08:24:01.092Z,7.800000
2022-11-18T08:25:05.455Z,7.800000
2022-11-18T08:33:00.295Z,7.800000
2022-11-18T08:34:00.372Z,7.800000
2022-11-18T08:35:07.986Z,7.800000
2022-11-18T08:36:00.359Z,7.800000
2022-11-18T08:37:00.291Z,7.800000
2022-11-18T08:38:00.443Z,7.800000
2022-11-18T08:39:00.315Z,7.800000
2022-11-18T08:40:04.704Z,7.800000
2022-11-18T08:41:00.315Z,7.800000
2022-11-18T08:42:00.501Z,7.800000
2022-11-18T08:43:00.369Z,7.900000
2022-11-18T08:44:00.603Z,7.900000
2022-11-18T08:45:03.311Z,7.900000
2022-11-18T08:46:00.419Z,7.900000
2022-11-18T08:47:00.361Z,7.900000
2022-11-18T08:48:00.443Z,7.900000
2022-11-18T08:49:00.385Z,7.900000
2022-11-18T08:50:05.447Z,7.900000
2022-11-18T08:51:00.400Z,7.900000
2022-11-18T08:52:00.475Z,7.900000
2022-11-18T08:53:00.493Z,7.900000
2022-11-18T08:54:00.480Z,7.900000
2022-11-18T08:55:04.675Z,7.900000
2022-11-18T08:56:00.603Z,7.900000
2022-11-18T08:57:00.448Z,8.000000
2022-11-18T08:58:00.493Z,8.000000
2022-11-18T08:59:00.444Z,8.000000
2022-11-18T09:00:04.862Z,8.000000
2022-11-18T09:01:00.476Z,8.000000
2022-11-18T09:02:00.720Z,8.000000
2022-11-18T09:03:00.502Z,8.000000
2022-11-18T09:04:00.789Z,8.000000
2022-11-18T09:05:05.314Z,8.000000
2022-11-18T09:06:01.743Z,8.000000
2022-11-18T09:07:00.567Z,8.000000
2022-11-18T09:08:01.216Z,8.000000
2022-11-18T09:09:05.996Z,8.000000
2022-11-18T09:10:05.700Z,8.000000
2022-11-18T09:11:00.667Z,8.000000
2022-11-18T09:12:00.644Z,8.000000
2022-11-18T09:13:18.493Z,8.000000
2022-11-18T09:15:11.974Z,8.000000
2022-11-18T09:15:14.007Z,8.000000
2022-11-18T09:16:00.676Z,8.100000
2022-11-18T09:17:00.610Z,8.100000
2022-11-18T09:18:00.683Z,8.200000
2022-11-18T09:19:13.116Z,8.200000
2022-11-18T09:20:09.286Z,8.200000
2022-11-18T09:21:00.641Z,8.200000
2022-11-18T09:22:00.738Z,8.200000
2022-11-18T09:23:00.641Z,8.200000
2022-11-18T09:24:00.749Z,8.200000
2022-11-18T09:25:04.828Z,8.200000
2022-11-18T09:26:00.763Z,8.300000
2022-11-18T09:27:00.670Z,8.300000
2022-11-18T09:28:00.816Z,8.300000
2022-11-18T09:29:00.695Z,8.300000
2022-11-18T09:30:04.983Z,8.300000
2022-11-18T09:31:00.697Z,8.300000
2022-11-18T09:32:00.803Z,8.300000
2022-11-18T09:33:00.980Z,8.400000
2022-11-18T09:34:00.830Z,8.400000
2022-11-18T09:35:04.854Z,8.400000
2022-11-18T09:36:00.814Z,8.500000
2022-11-18T09:37:00.735Z,8.500000
2022-11-18T09:38:00.882Z,8.500000
2022-11-18T09:39:00.815Z,8.500000
2022-11-18T09:40:05.496Z,8.500000
2022-11-18T09:41:00.977Z,8.500000
2022-11-18T09:42:00.866Z,8.500000
2022-11-18T09:43:00.805Z,8.600000
2022-11-18T09:44:00.891Z,8.600000
2022-11-18T09:45:07.331Z,8.600000
2022-11-18T09:46:00.875Z,8.700000
2022-11-18T09:47:00.844Z,8.700000
2022-11-18T09:48:00.903Z,8.700000
2022-11-18T09:49:01.140Z,8.700000
2022-11-18T09:50:33.824Z,8.700000
2022-11-18T09:51:01.170Z,8.700000
2022-11-18T09:52:00.438Z,8.700000
2022-11-18T09:53:00.423Z,8.700000
2022-11-18T09:54:00.523Z,8.700000
2022-11-18T09:55:04.524Z,8.700000
2022-11-18T09:56:00.572Z,8.800000
2022-11-18T09:57:00.539Z,8.800000
2022-11-18T09:58:00.535Z,8.800000
2022-11-18T09:59:00.491Z,8.900000
2022-11-18T10:00:08.524Z,8.900000
2022-11-18T10:01:00.512Z,9.000000
2022-11-18T10:02:00.726Z,9.000000
2022-11-18T10:03:00.612Z,9.000000
2022-11-18T10:04:00.610Z,9.200000
2022-11-18T10:05:05.421Z,9.200000
2022-11-18T10:06:00.600Z,9.200000
2022-11-18T10:07:00.568Z,9.400000
2022-11-18T10:08:00.657Z,9.400000
2022-11-18T10:09:00.555Z,9.700000
2022-11-18T10:10:04.946Z,9.700000
2022-11-18T10:11:00.565Z,9.900000
2022-11-18T10:12:00.659Z,9.900000
2022-11-18T10:13:00.595Z,9.900000
2022-11-18T10:14:00.698Z,9.900000
2022-11-18T10:15:04.818Z,9.900000
2022-11-18T10:16:00.682Z,10.400000
2022-11-18T10:17:00.635Z,10.400000
2022-11-18T10:18:00.721Z,10.400000
2022-11-18T10:19:01.315Z,10.800000
2022-11-18T10:20:05.001Z,10.800000
2022-11-18T10:21:00.666Z,11.000000
2022-11-18T10:22:00.725Z,11.000000
2022-11-18T10:23:00.663Z,11.000000
2022-11-18T10:24:00.749Z,11.400000
2022-11-18T10:25:04.872Z,11.400000
2022-11-18T10:26:00.826Z,11.700000
2022-11-18T10:27:00.715Z,11.700000
2022-11-18T10:28:00.771Z,11.700000
2022-11-18T10:29:00.718Z,12.100000
2022-11-18T10:30:05.801Z,12.100000
2022-11-18T10:31:00.733Z,12.100000
2022-11-18T10:32:03.783Z,12.200000
2022-11-18T10:33:00.994Z,12.200000
2022-11-18T10:34:00.829Z,12.200000
2022-11-18T10:35:03.763Z,12.200000
2022-11-18T10:36:00.831Z,12.000000
2022-11-18T10:37:00.780Z,12.000000
2022-11-18T10:38:07.906Z,12.000000
2022-11-18T10:39:00.790Z,11.900000
2022-11-18T10:40:05.155Z,11.900000
2022-11-18T10:41:00.800Z,11.500000
2022-11-18T10:42:00.900Z,11.500000
2022-11-18T10:43:00.828Z,11.500000
2022-11-18T10:44:00.919Z,11.600000
2022-11-18T10:45:03.923Z,11.600000
2022-11-18T10:46:00.913Z,11.700000
2022-11-18T10:47:00.850Z,11.700000
2022-11-18T10:48:00.931Z,11.700000
2022-11-18T10:49:00.859Z,11.400000
2022-11-18T10:50:05.243Z,11.400000
2022-11-18T10:51:00.895Z,11.500000
2022-11-18T10:52:01.117Z,11.500000
2022-11-18T10:53:00.884Z,11.500000
2022-11-18T10:54:00.955Z,11.800000
2022-11-18T10:55:06.258Z,11.800000
2022-11-18T10:56:00.989Z,12.000000
2022-11-18T10:57:00.930Z,12.000000
2022-11-18T10:58:01.035Z,12.000000
2022-11-18T10:59:00.952Z,12.400000
2022-11-18T11:00:04.608Z,12.400000
2022-11-18T11:01:01.054Z,12.400000
2022-11-18T11:02:05.379Z,12.700000
2022-11-18T11:03:01.020Z,12.700000
2022-11-18T11:04:01.187Z,12.700000
2022-11-18T11:05:05.136Z,12.700000
2022-11-18T11:06:01.167Z,12.700000
2022-11-18T11:07:01.146Z,12.500000
2022-11-18T11:08:29.158Z,12.500000
2022-11-18T11:09:01.136Z,12.400000
2022-11-18T11:10:05.384Z,12.400000
2022-11-18T11:11:01.163Z,12.400000
2022-11-18T11:12:01.191Z,12.100000
2022-11-18T11:13:01.080Z,12.100000
2022-11-18T11:14:01.178Z,12.100000
2022-11-18T11:15:09.877Z,12.100000
2022-11-18T11:16:01.178Z,12.100000
2022-11-18T11:17:01.231Z,11.600000
2022-11-18T11:18:01.227Z,11.600000
2022-11-18T11:19:01.205Z,11.500000
2022-11-18T11:20:05.559Z,11.500000
2022-11-18T11:21:01.199Z,11.500000
2022-11-18T11:22:01.219Z,11.500000
2022-11-18T11:23:01.163Z,11.500000
2022-11-18T11:24:01.252Z,11.500000
2022-11-18T11:25:04.292Z,11.600000
2022-11-18T11:28:16.534Z,11.900000
2022-11-18T11:29:00.186Z,11.900000
2022-11-18T11:30:04.660Z,12.200000
2022-11-18T11:31:00.230Z,12.200000
2022-11-18T11:32:00.288Z,12.300000
2022-11-18T11:33:00.234Z,12.300000
2022-11-18T11:34:00.510Z,12.300000
2022-11-18T11:35:03.300Z,12.500000
2022-11-18T11:36:00.360Z,12.500000
2022-11-18T11:37:00.259Z,12.600000
2022-11-18T11:38:00.335Z,12.600000
2022-11-18T11:39:04.694Z,12.600000
2022-11-18T11:40:04.718Z,12.800000
2022-11-18T11:41:00.286Z,12.800000
2022-11-18T11:42:00.400Z,13.000000
2022-11-18T11:43:00.296Z,13.000000
2022-11-18T11:44:00.380Z,13.000000
2022-11-18T11:45:06.836Z,13.500000
2022-11-18T11:46:00.397Z,13.500000
2022-11-18T11:47:00.321Z,13.500000
2022-11-18T11:48:00.450Z,13.600000
2022-11-18T11:49:00.351Z,13.600000
2022-11-18T11:50:05.036Z,13.500000
2022-11-18T11:51:03.981Z,13.500000